West Franklin, New Hampshire
Current Conditions -  °F | °C
As of 7:15 AM on Friday 21 Nov 2014 (Local Time) from KLCI Reporting Station
Clear Clear  
Wind Chill: -10°   Ceiling: Unl
Heat Index: -4°   Visibility: 10mi
Dew Point: -12°   Wind: 10mph
Humidity: 54%   Direction: 260°W
Pressure: 29.95"   Gusts: NA
Location:  43.4435°N, 71.6697°W
Report Text: KLCI 211215Z AUTO 26009KT 10SM CLR M04/M12 A2995 RMK AO1
Loading
Personal Weather Stations






























Interactive Weather Map New forecast layout! Learn more

10-Day Weather Forecast

Advertisements
Track Severe Weather on mobile